sensor_id;sensor_type;location;lat;lon;timestamp;P1;durP1;ratioP1;P2;durP2;ratioP2
72065;SDS011;59939;52.516;13.420;2022-10-16T00:02:12;15.52;;;5.68;;
72065;SDS011;59939;52.516;13.420;2022-10-16T00:05:18;10.77;;;4.90;;
72065;SDS011;59939;52.516;13.420;2022-10-16T00:08:22;13.02;;;4.60;;
72065;SDS011;59939;52.516;13.420;2022-10-16T00:11:34;15.07;;;4.57;;
72065;SDS011;59939;52.516;13.420;2022-10-16T00:14:48;19.80;;;7.43;;
72065;SDS011;59939;52.516;13.420;2022-10-16T00:21:25;11.73;;;4.13;;
72065;SDS011;59939;52.516;13.420;2022-10-16T00:24:38;13.13;;;4.72;;
72065;SDS011;59939;52.516;13.420;2022-10-16T00:27:44;11.57;;;3.95;;
72065;SDS011;59939;52.516;13.420;2022-10-16T00:30:51;9.68;;;3.30;;
72065;SDS011;59939;52.516;13.420;2022-10-16T00:33:55;10.95;;;4.05;;
72065;SDS011;59939;52.516;13.420;2022-10-16T00:36:59;12.48;;;3.88;;
72065;SDS011;59939;52.516;13.420;2022-10-16T00:40:03;13.15;;;4.32;;
72065;SDS011;59939;52.516;13.420;2022-10-16T00:43:53;12.68;;;4.60;;
72065;SDS011;59939;52.516;13.420;2022-10-16T00:46:43;9.88;;;3.65;;
72065;SDS011;59939;52.516;13.420;2022-10-16T00:49:47;11.30;;;4.15;;
72065;SDS011;59939;52.516;13.420;2022-10-16T00:52:54;10.73;;;3.30;;
72065;SDS011;59939;52.516;13.420;2022-10-16T00:55:59;6.80;;;2.30;;
72065;SDS011;59939;52.516;13.420;2022-10-16T00:59:03;10.60;;;3.30;;
72065;SDS011;59939;52.516;13.420;2022-10-16T01:02:13;7.70;;;2.97;;
72065;SDS011;59939;52.516;13.420;2022-10-16T01:05:18;10.23;;;3.67;;
72065;SDS011;59939;52.516;13.420;2022-10-16T01:08:30;7.07;;;2.72;;
72065;SDS011;59939;52.516;13.420;2022-10-16T01:11:52;13.07;;;4.05;;
72065;SDS011;59939;52.516;13.420;2022-10-16T01:15:08;11.68;;;3.17;;
72065;SDS011;59939;52.516;13.420;2022-10-16T01:18:27;10.77;;;3.92;;
72065;SDS011;59939;52.516;13.420;2022-10-16T01:21:38;10.18;;;3.33;;
72065;SDS011;59939;52.516;13.420;2022-10-16T01:24:46;10.10;;;3.17;;
72065;SDS011;59939;52.516;13.420;2022-10-16T01:27:53;9.55;;;3.58;;
72065;SDS011;59939;52.516;13.420;2022-10-16T01:31:01;10.75;;;3.67;;
72065;SDS011;59939;52.516;13.420;2022-10-16T01:34:10;9.77;;;3.40;;
72065;SDS011;59939;52.516;13.420;2022-10-16T01:37:28;12.20;;;4.35;;
72065;SDS011;59939;52.516;13.420;2022-10-16T01:40:40;10.65;;;3.28;;
72065;SDS011;59939;52.516;13.420;2022-10-16T01:43:49;8.45;;;2.70;;
72065;SDS011;59939;52.516;13.420;2022-10-16T01:46:57;8.82;;;3.10;;
72065;SDS011;59939;52.516;13.420;2022-10-16T01:50:03;10.85;;;3.35;;
72065;SDS011;59939;52.516;13.420;2022-10-16T01:53:10;10.90;;;4.28;;
72065;SDS011;59939;52.516;13.420;2022-10-16T01:56:16;13.85;;;3.75;;
72065;SDS011;59939;52.516;13.420;2022-10-16T01:59:24;7.97;;;2.92;;
72065;SDS011;59939;52.516;13.420;2022-10-16T02:02:29;7.63;;;2.97;;
72065;SDS011;59939;52.516;13.420;2022-10-16T02:05:42;11.70;;;4.63;;
72065;SDS011;59939;52.516;13.420;2022-10-16T02:08:54;16.42;;;3.22;;
72065;SDS011;59939;52.516;13.420;2022-10-16T02:11:59;8.43;;;3.30;;
72065;SDS011;59939;52.516;13.420;2022-10-16T02:15:08;4.75;;;2.38;;
72065;SDS011;59939;52.516;13.420;2022-10-16T02:18:12;8.52;;;4.00;;
72065;SDS011;59939;52.516;13.420;2022-10-16T02:21:19;7.95;;;3.13;;
72065;SDS011;59939;52.516;13.420;2022-10-16T02:24:33;9.77;;;4.13;;
72065;SDS011;59939;52.516;13.420;2022-10-16T02:31:02;11.35;;;4.20;;
72065;SDS011;59939;52.516;13.420;2022-10-16T02:34:08;7.20;;;2.63;;
72065;SDS011;59939;52.516;13.420;2022-10-16T02:37:16;11.68;;;3.63;;
72065;SDS011;59939;52.516;13.420;2022-10-16T02:40:21;11.32;;;3.30;;
72065;SDS011;59939;52.516;13.420;2022-10-16T02:43:26;6.47;;;3.15;;
72065;SDS011;59939;52.516;13.420;2022-10-16T02:46:30;8.23;;;2.75;;
72065;SDS011;59939;52.516;13.420;2022-10-16T02:49:34;6.43;;;2.47;;
72065;SDS011;59939;52.516;13.420;2022-10-16T02:52:38;8.85;;;3.63;;
72065;SDS011;59939;52.516;13.420;2022-10-16T02:55:41;5.70;;;2.45;;
72065;SDS011;59939;52.516;13.420;2022-10-16T02:58:45;9.52;;;3.03;;
72065;SDS011;59939;52.516;13.420;2022-10-16T03:01:49;7.43;;;3.35;;
72065;SDS011;59939;52.516;13.420;2022-10-16T03:04:53;7.63;;;3.22;;
72065;SDS011;59939;52.516;13.420;2022-10-16T03:07:57;8.95;;;3.58;;
72065;SDS011;59939;52.516;13.420;2022-10-16T03:11:03;8.27;;;3.10;;
72065;SDS011;59939;52.516;13.420;2022-10-16T03:14:07;5.70;;;2.25;;
72065;SDS011;59939;52.516;13.420;2022-10-16T03:17:11;8.18;;;3.08;;
72065;SDS011;59939;52.516;13.420;2022-10-16T03:20:16;8.18;;;3.00;;
72065;SDS011;59939;52.516;13.420;2022-10-16T03:23:20;7.22;;;3.08;;
72065;SDS011;59939;52.516;13.420;2022-10-16T03:26:24;8.52;;;3.63;;
72065;SDS011;59939;52.516;13.420;2022-10-16T03:29:28;8.50;;;3.10;;
72065;SDS011;59939;52.516;13.420;2022-10-16T03:32:33;9.95;;;3.58;;
72065;SDS011;59939;52.516;13.420;2022-10-16T03:35:42;9.48;;;3.42;;
72065;SDS011;59939;52.516;13.420;2022-10-16T03:38:45;6.47;;;3.00;;
72065;SDS011;59939;52.516;13.420;2022-10-16T03:41:49;10.43;;;3.17;;
72065;SDS011;59939;52.516;13.420;2022-10-16T03:44:53;8.63;;;3.35;;
72065;SDS011;59939;52.516;13.420;2022-10-16T03:47:57;7.35;;;3.47;;
72065;SDS011;59939;52.516;13.420;2022-10-16T03:51:01;9.50;;;3.67;;
72065;SDS011;59939;52.516;13.420;2022-10-16T03:54:05;9.60;;;3.47;;
72065;SDS011;59939;52.516;13.420;2022-10-16T03:57:08;8.10;;;3.33;;
72065;SDS011;59939;52.516;13.420;2022-10-16T04:00:12;9.82;;;3.78;;
72065;SDS011;59939;52.516;13.420;2022-10-16T04:03:17;9.93;;;3.28;;
72065;SDS011;59939;52.516;13.420;2022-10-16T04:06:22;8.50;;;3.60;;
72065;SDS011;59939;52.516;13.420;2022-10-16T04:09:26;9.20;;;3.83;;
72065;SDS011;59939;52.516;13.420;2022-10-16T04:12:29;7.45;;;3.10;;
72065;SDS011;59939;52.516;13.420;2022-10-16T04:15:33;9.63;;;3.75;;
72065;SDS011;59939;52.516;13.420;2022-10-16T04:18:37;9.07;;;4.35;;
72065;SDS011;59939;52.516;13.420;2022-10-16T04:21:41;9.02;;;3.35;;
72065;SDS011;59939;52.516;13.420;2022-10-16T04:24:45;9.50;;;3.63;;
72065;SDS011;59939;52.516;13.420;2022-10-16T04:27:48;5.70;;;3.03;;
72065;SDS011;59939;52.516;13.420;2022-10-16T04:30:52;8.43;;;3.60;;
72065;SDS011;59939;52.516;13.420;2022-10-16T04:33:56;6.88;;;3.22;;
72065;SDS011;59939;52.516;13.420;2022-10-16T04:37:00;10.77;;;4.28;;
72065;SDS011;59939;52.516;13.420;2022-10-16T04:40:04;12.70;;;4.80;;
72065;SDS011;59939;52.516;13.420;2022-10-16T04:43:08;10.98;;;3.53;;
72065;SDS011;59939;52.516;13.420;2022-10-16T04:46:12;13.23;;;4.32;;
72065;SDS011;59939;52.516;13.420;2022-10-16T04:49:16;9.98;;;3.78;;
72065;SDS011;59939;52.516;13.420;2022-10-16T04:52:20;11.27;;;3.83;;
72065;SDS011;59939;52.516;13.420;2022-10-16T04:55:25;10.82;;;3.83;;
72065;SDS011;59939;52.516;13.420;2022-10-16T04:58:28;11.80;;;4.38;;
72065;SDS011;59939;52.516;13.420;2022-10-16T05:01:32;12.18;;;4.20;;
72065;SDS011;59939;52.516;13.420;2022-10-16T05:04:39;14.35;;;4.47;;
72065;SDS011;59939;52.516;13.420;2022-10-16T05:07:42;11.82;;;4.75;;
72065;SDS011;59939;52.516;13.420;2022-10-16T05:10:46;9.35;;;3.95;;
72065;SDS011;59939;52.516;13.420;2022-10-16T05:13:50;13.20;;;4.03;;
72065;SDS011;59939;52.516;13.420;2022-10-16T05:16:55;11.05;;;4.22;;
72065;SDS011;59939;52.516;13.420;2022-10-16T05:19:58;13.38;;;4.60;;
72065;SDS011;59939;52.516;13.420;2022-10-16T05:23:02;14.00;;;5.45;;
72065;SDS011;59939;52.516;13.420;2022-10-16T05:26:07;13.20;;;4.85;;
72065;SDS011;59939;52.516;13.420;2022-10-16T05:29:11;12.55;;;4.85;;
72065;SDS011;59939;52.516;13.420;2022-10-16T05:32:15;12.23;;;4.47;;
72065;SDS011;59939;52.516;13.420;2022-10-16T05:35:21;13.38;;;4.70;;
72065;SDS011;59939;52.516;13.420;2022-10-16T05:38:25;11.65;;;4.72;;
72065;SDS011;59939;52.516;13.420;2022-10-16T05:41:29;12.00;;;4.45;;
72065;SDS011;59939;52.516;13.420;2022-10-16T05:44:33;18.30;;;5.60;;
72065;SDS011;59939;52.516;13.420;2022-10-16T05:47:42;14.27;;;5.25;;
72065;SDS011;59939;52.516;13.420;2022-10-16T05:50:45;14.02;;;5.20;;
72065;SDS011;59939;52.516;13.420;2022-10-16T05:53:49;9.52;;;4.05;;
72065;SDS011;59939;52.516;13.420;2022-10-16T05:56:52;11.30;;;4.57;;
72065;SDS011;59939;52.516;13.420;2022-10-16T05:59:56;13.20;;;5.13;;
72065;SDS011;59939;52.516;13.420;2022-10-16T06:03:00;12.55;;;5.45;;
72065;SDS011;59939;52.516;13.420;2022-10-16T06:06:11;11.98;;;4.63;;
72065;SDS011;59939;52.516;13.420;2022-10-16T06:09:17;10.70;;;4.57;;
72065;SDS011;59939;52.516;13.420;2022-10-16T06:12:21;11.95;;;4.65;;
72065;SDS011;59939;52.516;13.420;2022-10-16T06:15:25;9.63;;;3.92;;
72065;SDS011;59939;52.516;13.420;2022-10-16T06:18:29;12.20;;;5.13;;
72065;SDS011;59939;52.516;13.420;2022-10-16T06:21:33;14.07;;;5.85;;
72065;SDS011;59939;52.516;13.420;2022-10-16T06:24:37;10.48;;;4.22;;
72065;SDS011;59939;52.516;13.420;2022-10-16T06:27:43;12.50;;;4.53;;
72065;SDS011;59939;52.516;13.420;2022-10-16T06:31:02;10.18;;;4.22;;
72065;SDS011;59939;52.516;13.420;2022-10-16T06:34:21;12.68;;;4.85;;
72065;SDS011;59939;52.516;13.420;2022-10-16T06:37:26;9.75;;;4.20;;
72065;SDS011;59939;52.516;13.420;2022-10-16T06:40:33;14.82;;;5.55;;
72065;SDS011;59939;52.516;13.420;2022-10-16T06:43:51;12.40;;;4.85;;
72065;SDS011;59939;52.516;13.420;2022-10-16T06:46:56;15.73;;;5.68;;
72065;SDS011;59939;52.516;13.420;2022-10-16T06:49:59;13.13;;;4.70;;
72065;SDS011;59939;52.516;13.420;2022-10-16T06:53:03;10.25;;;3.80;;
72065;SDS011;59939;52.516;13.420;2022-10-16T06:56:11;9.75;;;3.85;;
72065;SDS011;59939;52.516;13.420;2022-10-16T06:59:25;9.50;;;4.20;;
72065;SDS011;59939;52.516;13.420;2022-10-16T07:02:29;11.35;;;4.75;;
72065;SDS011;59939;52.516;13.420;2022-10-16T07:05:37;11.77;;;4.68;;
72065;SDS011;59939;52.516;13.420;2022-10-16T07:08:42;10.65;;;4.40;;
72065;SDS011;59939;52.516;13.420;2022-10-16T07:11:47;11.75;;;5.13;;
72065;SDS011;59939;52.516;13.420;2022-10-16T07:14:51;8.88;;;3.58;;
72065;SDS011;59939;52.516;13.420;2022-10-16T07:17:56;8.50;;;3.22;;
72065;SDS011;59939;52.516;13.420;2022-10-16T07:21:10;11.27;;;3.85;;
72065;SDS011;59939;52.516;13.420;2022-10-16T07:24:19;8.50;;;3.70;;
72065;SDS011;59939;52.516;13.420;2022-10-16T07:27:23;13.55;;;5.05;;
72065;SDS011;59939;52.516;13.420;2022-10-16T07:30:29;12.45;;;5.40;;
72065;SDS011;59939;52.516;13.420;2022-10-16T07:33:34;8.82;;;3.72;;
72065;SDS011;59939;52.516;13.420;2022-10-16T07:36:42;11.23;;;4.32;;
72065;SDS011;59939;52.516;13.420;2022-10-16T07:43:25;18.98;;;7.22;;
72065;SDS011;59939;52.516;13.420;2022-10-16T07:46:29;7.07;;;3.00;;
72065;SDS011;59939;52.516;13.420;2022-10-16T07:49:34;8.20;;;3.10;;
72065;SDS011;59939;52.516;13.420;2022-10-16T07:52:38;8.45;;;3.35;;
72065;SDS011;59939;52.516;13.420;2022-10-16T07:55:42;8.00;;;3.35;;
72065;SDS011;59939;52.516;13.420;2022-10-16T07:58:45;13.00;;;4.18;;
72065;SDS011;59939;52.516;13.420;2022-10-16T08:01:49;6.97;;;3.30;;
72065;SDS011;59939;52.516;13.420;2022-10-16T08:04:54;11.07;;;4.03;;
72065;SDS011;59939;52.516;13.420;2022-10-16T08:07:58;14.05;;;4.90;;
72065;SDS011;59939;52.516;13.420;2022-10-16T08:11:01;13.07;;;4.63;;
72065;SDS011;59939;52.516;13.420;2022-10-16T08:14:07;6.85;;;2.90;;
72065;SDS011;59939;52.516;13.420;2022-10-16T08:17:13;9.65;;;3.55;;
72065;SDS011;59939;52.516;13.420;2022-10-16T08:20:17;8.07;;;3.20;;
72065;SDS011;59939;52.516;13.420;2022-10-16T08:23:21;11.00;;;3.92;;
72065;SDS011;59939;52.516;13.420;2022-10-16T08:26:25;18.30;;;5.32;;
72065;SDS011;59939;52.516;13.420;2022-10-16T08:29:30;14.63;;;5.53;;
72065;SDS011;59939;52.516;13.420;2022-10-16T08:32:42;12.02;;;3.63;;
72065;SDS011;59939;52.516;13.420;2022-10-16T08:35:50;10.75;;;3.67;;
72065;SDS011;59939;52.516;13.420;2022-10-16T08:38:57;15.90;;;5.03;;
72065;SDS011;59939;52.516;13.420;2022-10-16T08:42:06;13.80;;;5.45;;
72065;SDS011;59939;52.516;13.420;2022-10-16T08:45:20;15.07;;;5.00;;
72065;SDS011;59939;52.516;13.420;2022-10-16T08:48:35;9.43;;;3.35;;
72065;SDS011;59939;52.516;13.420;2022-10-16T08:51:54;17.02;;;7.32;;
72065;SDS011;59939;52.516;13.420;2022-10-16T08:54:59;8.27;;;2.78;;
72065;SDS011;59939;52.516;13.420;2022-10-16T09:01:41;14.00;;;4.20;;
72065;SDS011;59939;52.516;13.420;2022-10-16T09:12:18;9.57;;;3.60;;
72065;SDS011;59939;52.516;13.420;2022-10-16T09:15:39;13.43;;;4.97;;
72065;SDS011;59939;52.516;13.420;2022-10-16T09:19:11;10.02;;;3.50;;
72065;SDS011;59939;52.516;13.420;2022-10-16T09:22:25;12.45;;;4.00;;
72065;SDS011;59939;52.516;13.420;2022-10-16T09:25:33;8.00;;;2.75;;
72065;SDS011;59939;52.516;13.420;2022-10-16T09:28:38;11.27;;;3.40;;
72065;SDS011;59939;52.516;13.420;2022-10-16T09:31:42;10.30;;;3.15;;
72065;SDS011;59939;52.516;13.420;2022-10-16T09:34:47;8.95;;;2.83;;
72065;SDS011;59939;52.516;13.420;2022-10-16T09:37:54;7.65;;;2.70;;
72065;SDS011;59939;52.516;13.420;2022-10-16T09:41:02;10.20;;;3.35;;
72065;SDS011;59939;52.516;13.420;2022-10-16T09:44:32;9.73;;;3.25;;
72065;SDS011;59939;52.516;13.420;2022-10-16T09:47:39;12.02;;;5.22;;
72065;SDS011;59939;52.516;13.420;2022-10-16T09:50:55;16.30;;;6.82;;
72065;SDS011;59939;52.516;13.420;2022-10-16T09:57:16;11.27;;;3.90;;
72065;SDS011;59939;52.516;13.420;2022-10-16T10:00:21;11.35;;;3.22;;
72065;SDS011;59939;52.516;13.420;2022-10-16T10:03:33;16.15;;;5.43;;
72065;SDS011;59939;52.516;13.420;2022-10-16T10:10:25;9.52;;;3.15;;
72065;SDS011;59939;52.516;13.420;2022-10-16T10:13:31;8.68;;;2.47;;
72065;SDS011;59939;52.516;13.420;2022-10-16T10:16:35;21.45;;;5.57;;
72065;SDS011;59939;52.516;13.420;2022-10-16T10:22:49;9.80;;;3.40;;
72065;SDS011;59939;52.516;13.420;2022-10-16T10:29:42;18.35;;;6.28;;
72065;SDS011;59939;52.516;13.420;2022-10-16T10:33:00;8.73;;;2.72;;
72065;SDS011;59939;52.516;13.420;2022-10-16T10:36:39;13.70;;;3.63;;
72065;SDS011;59939;52.516;13.420;2022-10-16T10:39:58;8.82;;;2.83;;
72065;SDS011;59939;52.516;13.420;2022-10-16T10:47:16;13.32;;;4.63;;
72065;SDS011;59939;52.516;13.420;2022-10-16T10:50:23;10.65;;;2.75;;
72065;SDS011;59939;52.516;13.420;2022-10-16T10:53:36;7.80;;;2.20;;
72065;SDS011;59939;52.516;13.420;2022-10-16T10:56:50;22.45;;;8.15;;
72065;SDS011;59939;52.516;13.420;2022-10-16T11:00:15;9.15;;;2.97;;
72065;SDS011;59939;52.516;13.420;2022-10-16T11:03:33;28.90;;;9.75;;
72065;SDS011;59939;52.516;13.420;2022-10-16T11:06:59;20.52;;;6.82;;
72065;SDS011;59939;52.516;13.420;2022-10-16T11:10:15;11.25;;;3.05;;
72065;SDS011;59939;52.516;13.420;2022-10-16T11:13:55;15.30;;;3.47;;
72065;SDS011;59939;52.516;13.420;2022-10-16T11:17:18;32.03;;;8.52;;
72065;SDS011;59939;52.516;13.420;2022-10-16T11:20:32;18.27;;;4.90;;
72065;SDS011;59939;52.516;13.420;2022-10-16T11:27:37;22.80;;;6.13;;
72065;SDS011;59939;52.516;13.420;2022-10-16T11:30:53;45.50;;;12.65;;
72065;SDS011;59939;52.516;13.420;2022-10-16T11:37:41;38.17;;;10.88;;
72065;SDS011;59939;52.516;13.420;2022-10-16T11:40:49;37.65;;;10.68;;
72065;SDS011;59939;52.516;13.420;2022-10-16T11:48:00;22.83;;;5.93;;
72065;SDS011;59939;52.516;13.420;2022-10-16T11:51:33;16.70;;;3.90;;
72065;SDS011;59939;52.516;13.420;2022-10-16T11:54:52;17.38;;;3.80;;
72065;SDS011;59939;52.516;13.420;2022-10-16T11:58:20;27.35;;;6.80;;
72065;SDS011;59939;52.516;13.420;2022-10-16T12:01:31;20.33;;;4.85;;
72065;SDS011;59939;52.516;13.420;2022-10-16T12:04:43;15.63;;;3.58;;
72065;SDS011;59939;52.516;13.420;2022-10-16T12:08:06;16.42;;;3.83;;
72065;SDS011;59939;52.516;13.420;2022-10-16T12:11:23;18.85;;;4.78;;
72065;SDS011;59939;52.516;13.420;2022-10-16T12:14:59;18.33;;;4.28;;
72065;SDS011;59939;52.516;13.420;2022-10-16T12:18:22;18.42;;;4.72;;
72065;SDS011;59939;52.516;13.420;2022-10-16T12:21:31;14.43;;;3.53;;
72065;SDS011;59939;52.516;13.420;2022-10-16T12:24:39;26.48;;;6.88;;
72065;SDS011;59939;52.516;13.420;2022-10-16T12:28:01;19.45;;;4.45;;
72065;SDS011;59939;52.516;13.420;2022-10-16T12:31:09;20.80;;;4.47;;
72065;SDS011;59939;52.516;13.420;2022-10-16T12:34:23;9.57;;;3.15;;
72065;SDS011;59939;52.516;13.420;2022-10-16T12:37:33;3.97;;;2.15;;
72065;SDS011;59939;52.516;13.420;2022-10-16T12:40:53;1.27;;;0.93;;
72065;SDS011;59939;52.516;13.420;2022-10-16T12:44:01;2.22;;;1.00;;
72065;SDS011;59939;52.516;13.420;2022-10-16T12:47:18;3.00;;;1.23;;
72065;SDS011;59939;52.516;13.420;2022-10-16T12:50:38;1.42;;;0.98;;
72065;SDS011;59939;52.516;13.420;2022-10-16T12:53:45;2.20;;;0.98;;
72065;SDS011;59939;52.516;13.420;2022-10-16T13:00:29;1.80;;;1.00;;
72065;SDS011;59939;52.516;13.420;2022-10-16T13:07:19;5.72;;;1.30;;
72065;SDS011;59939;52.516;13.420;2022-10-16T13:10:40;1.67;;;0.60;;
72065;SDS011;59939;52.516;13.420;2022-10-16T13:13:59;1.17;;;0.80;;
72065;SDS011;59939;52.516;13.420;2022-10-16T13:17:13;1.25;;;1.00;;
72065;SDS011;59939;52.516;13.420;2022-10-16T13:20:46;1.20;;;1.10;;
72065;SDS011;59939;52.516;13.420;2022-10-16T13:24:18;1.75;;;0.80;;
72065;SDS011;59939;52.516;13.420;2022-10-16T13:27:54;2.78;;;0.90;;
72065;SDS011;59939;52.516;13.420;2022-10-16T13:31:00;2.38;;;0.73;;
72065;SDS011;59939;52.516;13.420;2022-10-16T13:34:10;0.88;;;0.80;;
72065;SDS011;59939;52.516;13.420;2022-10-16T13:37:19;4.00;;;1.17;;
72065;SDS011;59939;52.516;13.420;2022-10-16T13:40:24;1.35;;;0.82;;
72065;SDS011;59939;52.516;13.420;2022-10-16T13:43:33;3.70;;;1.10;;
72065;SDS011;59939;52.516;13.420;2022-10-16T13:46:37;1.75;;;0.90;;
72065;SDS011;59939;52.516;13.420;2022-10-16T13:49:41;12.82;;;1.25;;
72065;SDS011;59939;52.516;13.420;2022-10-16T13:52:45;1.80;;;0.90;;
72065;SDS011;59939;52.516;13.420;2022-10-16T13:55:49;5.43;;;2.35;;
72065;SDS011;59939;52.516;13.420;2022-10-16T14:02:33;1.55;;;0.93;;
72065;SDS011;59939;52.516;13.420;2022-10-16T14:05:51;1.25;;;0.90;;
72065;SDS011;59939;52.516;13.420;2022-10-16T14:09:00;0.73;;;0.70;;
72065;SDS011;59939;52.516;13.420;2022-10-16T14:12:13;0.68;;;0.68;;
72065;SDS011;59939;52.516;13.420;2022-10-16T14:15:20;1.55;;;0.93;;
72065;SDS011;59939;52.516;13.420;2022-10-16T14:18:26;1.55;;;0.95;;
72065;SDS011;59939;52.516;13.420;2022-10-16T14:21:33;2.78;;;0.90;;
72065;SDS011;59939;52.516;13.420;2022-10-16T14:24:38;3.15;;;1.10;;
72065;SDS011;59939;52.516;13.420;2022-10-16T14:27:59;1.08;;;0.95;;
72065;SDS011;59939;52.516;13.420;2022-10-16T14:34:37;1.10;;;0.82;;
72065;SDS011;59939;52.516;13.420;2022-10-16T14:37:43;4.05;;;1.20;;
72065;SDS011;59939;52.516;13.420;2022-10-16T14:40:50;3.67;;;0.90;;
72065;SDS011;59939;52.516;13.420;2022-10-16T14:44:09;1.00;;;0.90;;
72065;SDS011;59939;52.516;13.420;2022-10-16T14:47:17;3.60;;;1.35;;
72065;SDS011;59939;52.516;13.420;2022-10-16T14:50:30;3.53;;;1.15;;
72065;SDS011;59939;52.516;13.420;2022-10-16T14:53:34;2.58;;;1.30;;
72065;SDS011;59939;52.516;13.420;2022-10-16T14:59:49;5.07;;;1.52;;
72065;SDS011;59939;52.516;13.420;2022-10-16T15:02:58;1.20;;;1.00;;
72065;SDS011;59939;52.516;13.420;2022-10-16T15:06:02;2.15;;;1.30;;
72065;SDS011;59939;52.516;13.420;2022-10-16T15:09:14;2.85;;;1.23;;
72065;SDS011;59939;52.516;13.420;2022-10-16T15:12:18;2.72;;;1.33;;
72065;SDS011;59939;52.516;13.420;2022-10-16T15:18:27;4.50;;;1.00;;
72065;SDS011;59939;52.516;13.420;2022-10-16T15:21:38;5.88;;;1.30;;
72065;SDS011;59939;52.516;13.420;2022-10-16T15:24:50;2.05;;;1.05;;
72065;SDS011;59939;52.516;13.420;2022-10-16T15:27:56;2.33;;;1.13;;
72065;SDS011;59939;52.516;13.420;2022-10-16T15:31:00;3.70;;;1.45;;
72065;SDS011;59939;52.516;13.420;2022-10-16T15:34:08;4.40;;;1.23;;
72065;SDS011;59939;52.516;13.420;2022-10-16T15:37:13;2.63;;;0.90;;
72065;SDS011;59939;52.516;13.420;2022-10-16T15:40:17;6.13;;;1.20;;
72065;SDS011;59939;52.516;13.420;2022-10-16T15:43:22;4.03;;;1.13;;
72065;SDS011;59939;52.516;13.420;2022-10-16T15:46:27;1.80;;;1.10;;
72065;SDS011;59939;52.516;13.420;2022-10-16T15:49:33;2.50;;;1.10;;
72065;SDS011;59939;52.516;13.420;2022-10-16T15:52:38;3.05;;;1.02;;
72065;SDS011;59939;52.516;13.420;2022-10-16T15:55:42;2.03;;;1.30;;
72065;SDS011;59939;52.516;13.420;2022-10-16T15:58:46;3.05;;;1.35;;
72065;SDS011;59939;52.516;13.420;2022-10-16T16:01:50;2.40;;;1.00;;
72065;SDS011;59939;52.516;13.420;2022-10-16T16:04:55;3.72;;;1.27;;
72065;SDS011;59939;52.516;13.420;2022-10-16T16:08:02;3.38;;;1.15;;
72065;SDS011;59939;52.516;13.420;2022-10-16T16:11:10;4.65;;;1.48;;
72065;SDS011;59939;52.516;13.420;2022-10-16T16:14:19;6.72;;;1.52;;
72065;SDS011;59939;52.516;13.420;2022-10-16T16:17:23;4.07;;;1.55;;
72065;SDS011;59939;52.516;13.420;2022-10-16T16:20:28;5.28;;;1.50;;
72065;SDS011;59939;52.516;13.420;2022-10-16T16:23:34;2.90;;;1.40;;
72065;SDS011;59939;52.516;13.420;2022-10-16T16:26:43;3.72;;;1.33;;
72065;SDS011;59939;52.516;13.420;2022-10-16T16:29:49;4.88;;;1.63;;
72065;SDS011;59939;52.516;13.420;2022-10-16T16:33:00;6.35;;;1.50;;
72065;SDS011;59939;52.516;13.420;2022-10-16T16:36:07;3.92;;;1.30;;
72065;SDS011;59939;52.516;13.420;2022-10-16T16:39:14;3.75;;;1.45;;
72065;SDS011;59939;52.516;13.420;2022-10-16T16:42:18;3.42;;;1.15;;
72065;SDS011;59939;52.516;13.420;2022-10-16T16:45:21;3.08;;;1.27;;
72065;SDS011;59939;52.516;13.420;2022-10-16T16:48:26;4.43;;;1.10;;
72065;SDS011;59939;52.516;13.420;2022-10-16T16:51:30;3.25;;;1.40;;
72065;SDS011;59939;52.516;13.420;2022-10-16T16:54:37;5.93;;;1.52;;
72065;SDS011;59939;52.516;13.420;2022-10-16T16:57:41;4.78;;;2.58;;
72065;SDS011;59939;52.516;13.420;2022-10-16T17:00:46;4.70;;;1.67;;
72065;SDS011;59939;52.516;13.420;2022-10-16T17:07:26;6.03;;;1.80;;
72065;SDS011;59939;52.516;13.420;2022-10-16T17:10:30;3.80;;;1.50;;
72065;SDS011;59939;52.516;13.420;2022-10-16T17:13:34;3.83;;;1.65;;
72065;SDS011;59939;52.516;13.420;2022-10-16T17:16:42;4.45;;;1.50;;
72065;SDS011;59939;52.516;13.420;2022-10-16T17:19:51;4.10;;;1.52;;
72065;SDS011;59939;52.516;13.420;2022-10-16T17:22:56;5.32;;;1.75;;
72065;SDS011;59939;52.516;13.420;2022-10-16T17:26:11;7.95;;;2.03;;
72065;SDS011;59939;52.516;13.420;2022-10-16T17:29:19;6.57;;;1.80;;
72065;SDS011;59939;52.516;13.420;2022-10-16T17:32:23;4.70;;;1.70;;
72065;SDS011;59939;52.516;13.420;2022-10-16T17:35:35;6.93;;;1.90;;
72065;SDS011;59939;52.516;13.420;2022-10-16T17:38:41;6.53;;;1.90;;
72065;SDS011;59939;52.516;13.420;2022-10-16T17:41:59;5.88;;;2.00;;
72065;SDS011;59939;52.516;13.420;2022-10-16T17:45:07;5.68;;;2.42;;
72065;SDS011;59939;52.516;13.420;2022-10-16T17:48:11;6.28;;;2.65;;
72065;SDS011;59939;52.516;13.420;2022-10-16T17:51:17;5.85;;;2.30;;
72065;SDS011;59939;52.516;13.420;2022-10-16T17:54:24;9.85;;;3.47;;
72065;SDS011;59939;52.516;13.420;2022-10-16T17:57:28;12.48;;;4.22;;
72065;SDS011;59939;52.516;13.420;2022-10-16T18:00:32;7.90;;;2.53;;
72065;SDS011;59939;52.516;13.420;2022-10-16T18:03:36;10.73;;;3.53;;
72065;SDS011;59939;52.516;13.420;2022-10-16T18:06:43;10.15;;;3.17;;
72065;SDS011;59939;52.516;13.420;2022-10-16T18:09:49;9.25;;;2.80;;
72065;SDS011;59939;52.516;13.420;2022-10-16T18:13:19;11.88;;;3.72;;
72065;SDS011;59939;52.516;13.420;2022-10-16T18:16:23;13.10;;;4.22;;
72065;SDS011;59939;52.516;13.420;2022-10-16T18:19:28;11.18;;;3.42;;
72065;SDS011;59939;52.516;13.420;2022-10-16T18:22:33;14.48;;;4.95;;
72065;SDS011;59939;52.516;13.420;2022-10-16T18:25:47;15.02;;;4.75;;
72065;SDS011;59939;52.516;13.420;2022-10-16T18:28:53;48.92;;;23.95;;
72065;SDS011;59939;52.516;13.420;2022-10-16T18:31:59;42.88;;;21.23;;
72065;SDS011;59939;52.516;13.420;2022-10-16T18:35:02;41.97;;;20.05;;
72065;SDS011;59939;52.516;13.420;2022-10-16T18:38:06;44.35;;;21.40;;
72065;SDS011;59939;52.516;13.420;2022-10-16T18:41:11;47.63;;;22.73;;
72065;SDS011;59939;52.516;13.420;2022-10-16T18:44:14;43.10;;;20.58;;
72065;SDS011;59939;52.516;13.420;2022-10-16T18:47:18;32.67;;;13.18;;
72065;SDS011;59939;52.516;13.420;2022-10-16T18:50:22;33.90;;;14.77;;
72065;SDS011;59939;52.516;13.420;2022-10-16T18:53:26;20.63;;;5.35;;
72065;SDS011;59939;52.516;13.420;2022-10-16T18:56:31;23.23;;;9.07;;
72065;SDS011;59939;52.516;13.420;2022-10-16T18:59:35;26.70;;;8.73;;
72065;SDS011;59939;52.516;13.420;2022-10-16T19:02:39;21.60;;;7.28;;
72065;SDS011;59939;52.516;13.420;2022-10-16T19:05:43;17.80;;;5.60;;
72065;SDS011;59939;52.516;13.420;2022-10-16T19:08:50;28.73;;;8.50;;
72065;SDS011;59939;52.516;13.420;2022-10-16T19:11:54;21.70;;;8.25;;
72065;SDS011;59939;52.516;13.420;2022-10-16T19:14:59;32.83;;;11.80;;
72065;SDS011;59939;52.516;13.420;2022-10-16T19:18:04;40.45;;;16.65;;
72065;SDS011;59939;52.516;13.420;2022-10-16T19:21:08;26.13;;;9.73;;
72065;SDS011;59939;52.516;13.420;2022-10-16T19:24:14;32.42;;;14.57;;
72065;SDS011;59939;52.516;13.420;2022-10-16T19:27:19;49.30;;;26.77;;
72065;SDS011;59939;52.516;13.420;2022-10-16T19:30:23;36.85;;;17.35;;
72065;SDS011;59939;52.516;13.420;2022-10-16T19:33:28;27.13;;;10.15;;
72065;SDS011;59939;52.516;13.420;2022-10-16T19:36:33;16.80;;;6.40;;
72065;SDS011;59939;52.516;13.420;2022-10-16T19:39:37;28.38;;;9.57;;
72065;SDS011;59939;52.516;13.420;2022-10-16T19:42:41;20.48;;;6.80;;
72065;SDS011;59939;52.516;13.420;2022-10-16T19:45:47;22.10;;;7.40;;